Bridge Hampton, New York
Current Conditions -  °F | °C
As of 3:53 PM on Saturday 22 Nov 2014 (Local Time) from KFOK Reporting Station
Few Clouds Few Clouds  
Wind Chill: 34°   Ceiling: Unl
Heat Index: 42°   Visibility: 10mi
Dew Point: 25°   Wind: 18mph
Humidity: 51%   Direction: 230°SW
Pressure: 30.28"   Gusts: 26mph
Location:  40.9594°N, 72.2887°W
Report Text: KFOK 222053Z 23016G23KT 10SM FEW085 06/M04 A3028 RMK AO2 PK WND 24027/2029 SLP253 T00561039 56025
Loading
Personal Weather Stations






























Interactive Weather Map New forecast layout! Learn more

10-Day Weather Forecast

Advertisements
Track Severe Weather on mobile